sensor_id;sensor_type;location;lat;lon;timestamp;pressure;altitude;pressure_sealevel;temperature;humidity
10688;BME280;5392;42.688;23.298;2023-07-02T00:00:06;57329.94;;;-144.48;100.00
10688;BME280;5392;42.688;23.298;2023-07-02T00:02:33;57346.63;;;-144.48;100.00
10688;BME280;5392;42.688;23.298;2023-07-02T00:05:00;57304.88;;;-144.48;100.00
10688;BME280;5392;42.688;23.298;2023-07-02T00:07:27;57388.38;;;-144.48;100.00
10688;BME280;5392;42.688;23.298;2023-07-02T00:09:54;57327.84;;;-144.48;100.00
10688;BME280;5392;42.688;23.298;2023-07-02T00:12:21;57377.94;;;-144.48;100.00
10688;BME280;5392;42.688;23.298;2023-07-02T00:14:47;57375.84;;;-144.48;100.00
10688;BME280;5392;42.688;23.298;2023-07-02T00:17:14;57352.91;;;-144.48;100.00
10688;BME280;5392;42.688;23.298;2023-07-02T00:19:41;57325.75;;;-144.48;100.00
10688;BME280;5392;42.688;23.298;2023-07-02T00:22:09;57354.97;;;-144.48;100.00
10688;BME280;5392;42.688;23.298;2023-07-02T00:24:36;57371.69;;;-144.48;100.00
10688;BME280;5392;42.688;23.298;2023-07-02T00:27:04;57346.63;;;-144.48;100.00
10688;BME280;5392;42.688;23.298;2023-07-02T00:29:31;57334.09;;;-144.48;100.00
10688;BME280;5392;42.688;23.298;2023-07-02T00:31:57;57340.38;;;-144.48;100.00
10688;BME280;5392;42.688;23.298;2023-07-02T00:34:24;57371.69;;;-144.48;100.00
10688;BME280;5392;42.688;23.298;2023-07-02T00:36:51;57315.31;;;-144.48;100.00
10688;BME280;5392;42.688;23.298;2023-07-02T00:39:18;57346.63;;;-144.48;100.00
10688;BME280;5392;42.688;23.298;2023-07-02T00:41:45;57334.09;;;-144.48;100.00
10688;BME280;5392;42.688;23.298;2023-07-02T00:44:15;57386.28;;;-144.48;100.00
10688;BME280;5392;42.688;23.298;2023-07-02T00:46:42;57346.63;;;-144.48;100.00
10688;BME280;5392;42.688;23.298;2023-07-02T00:49:09;57375.84;;;-144.48;100.00
10688;BME280;5392;42.688;23.298;2023-07-02T00:51:36;57352.91;;;-144.48;100.00
10688;BME280;5392;42.688;23.298;2023-07-02T00:54:04;57388.38;;;-144.48;100.00
10688;BME280;5392;42.688;23.298;2023-07-02T00:56:30;57348.72;;;-144.48;100.00
10688;BME280;5392;42.688;23.298;2023-07-02T00:58:57;57392.56;;;-144.48;100.00
10688;BME280;5392;42.688;23.298;2023-07-02T01:01:26;57369.59;;;-144.48;100.00
10688;BME280;5392;42.688;23.298;2023-07-02T01:04:01;57352.91;;;-144.48;100.00
10688;BME280;5392;42.688;23.298;2023-07-02T01:06:33;57363.31;;;-144.48;100.00
10688;BME280;5392;42.688;23.298;2023-07-02T01:09:05;57386.28;;;-144.48;100.00
10688;BME280;5392;42.688;23.298;2023-07-02T01:11:39;57388.38;;;-144.48;100.00
10688;BME280;5392;42.688;23.298;2023-07-02T01:14:14;57384.19;;;-144.48;100.00
10688;BME280;5392;42.688;23.298;2023-07-02T01:16:44;57363.31;;;-144.48;100.00
10688;BME280;5392;42.688;23.298;2023-07-02T01:19:18;57386.28;;;-144.48;100.00
10688;BME280;5392;42.688;23.298;2023-07-02T01:21:47;57344.53;;;-144.48;100.00
10688;BME280;5392;42.688;23.298;2023-07-02T01:24:18;57373.75;;;-144.48;100.00
10688;BME280;5392;42.688;23.298;2023-07-02T01:26:47;57329.94;;;-144.48;100.00
10688;BME280;5392;42.688;23.298;2023-07-02T01:29:19;57398.81;;;-144.48;100.00
10688;BME280;5392;42.688;23.298;2023-07-02T01:31:47;57377.94;;;-144.48;100.00
10688;BME280;5392;42.688;23.298;2023-07-02T01:34:14;57377.94;;;-144.48;100.00
10688;BME280;5392;42.688;23.298;2023-07-02T01:36:41;57348.72;;;-144.48;100.00
10688;BME280;5392;42.688;23.298;2023-07-02T01:39:08;57373.75;;;-144.48;100.00
10688;BME280;5392;42.688;23.298;2023-07-02T01:42:23;57344.53;;;-144.48;100.00
10688;BME280;5392;42.688;23.298;2023-07-02T01:44:24;57388.38;;;-144.48;100.00
10688;BME280;5392;42.688;23.298;2023-07-02T01:46:51;57363.31;;;-144.48;100.00
10688;BME280;5392;42.688;23.298;2023-07-02T01:49:18;57375.84;;;-144.48;100.00
10688;BME280;5392;42.688;23.298;2023-07-02T01:51:51;57369.59;;;-144.48;100.00
10688;BME280;5392;42.688;23.298;2023-07-02T01:54:19;57357.06;;;-144.48;100.00
10688;BME280;5392;42.688;23.298;2023-07-02T01:56:47;57357.06;;;-144.48;100.00
10688;BME280;5392;42.688;23.298;2023-07-02T01:59:14;57377.94;;;-144.48;100.00
10688;BME280;5392;42.688;23.298;2023-07-02T02:01:41;57363.31;;;-144.48;100.00
10688;BME280;5392;42.688;23.298;2023-07-02T02:04:09;57371.69;;;-144.48;100.00
10688;BME280;5392;42.688;23.298;2023-07-02T02:06:37;57357.06;;;-144.48;100.00
10688;BME280;5392;42.688;23.298;2023-07-02T02:09:04;57361.25;;;-144.48;100.00
10688;BME280;5392;42.688;23.298;2023-07-02T02:11:32;57413.44;;;-144.48;100.00
10688;BME280;5392;42.688;23.298;2023-07-02T02:14:00;57344.53;;;-144.48;100.00
10688;BME280;5392;42.688;23.298;2023-07-02T02:16:27;57348.72;;;-144.48;100.00
10688;BME280;5392;42.688;23.298;2023-07-02T02:18:55;57392.56;;;-144.48;100.00
10688;BME280;5392;42.688;23.298;2023-07-02T02:21:22;57400.91;;;-144.48;100.00
10688;BME280;5392;42.688;23.298;2023-07-02T02:23:49;57394.63;;;-144.48;100.00
10688;BME280;5392;42.688;23.298;2023-07-02T02:26:15;57348.72;;;-144.48;100.00
10688;BME280;5392;42.688;23.298;2023-07-02T02:28:42;57392.56;;;-144.48;100.00
10688;BME280;5392;42.688;23.298;2023-07-02T02:31:09;57334.09;;;-144.48;100.00
10688;BME280;5392;42.688;23.298;2023-07-02T02:33:36;57344.53;;;-144.48;100.00
10688;BME280;5392;42.688;23.298;2023-07-02T02:36:03;57344.53;;;-144.48;100.00
10688;BME280;5392;42.688;23.298;2023-07-02T02:38:29;57361.25;;;-144.48;100.00
10688;BME280;5392;42.688;23.298;2023-07-02T02:40:56;57380.03;;;-144.48;100.00
10688;BME280;5392;42.688;23.298;2023-07-02T02:43:23;57386.28;;;-144.48;100.00
10688;BME280;5392;42.688;23.298;2023-07-02T02:45:49;57367.50;;;-144.48;100.00
10688;BME280;5392;42.688;23.298;2023-07-02T02:48:16;57388.38;;;-144.48;100.00
10688;BME280;5392;42.688;23.298;2023-07-02T02:50:43;57352.91;;;-144.48;100.00
10688;BME280;5392;42.688;23.298;2023-07-02T02:53:10;57390.47;;;-144.48;100.00
10688;BME280;5392;42.688;23.298;2023-07-02T02:55:36;57375.84;;;-144.48;100.00
10688;BME280;5392;42.688;23.298;2023-07-02T02:58:03;57354.97;;;-144.48;100.00
10688;BME280;5392;42.688;23.298;2023-07-02T03:00:30;57354.97;;;-144.48;100.00
10688;BME280;5392;42.688;23.298;2023-07-02T03:02:58;57365.41;;;-144.48;100.00
10688;BME280;5392;42.688;23.298;2023-07-02T03:05:25;57367.50;;;-144.48;100.00
10688;BME280;5392;42.688;23.298;2023-07-02T03:07:52;57382.13;;;-144.48;100.00
10688;BME280;5392;42.688;23.298;2023-07-02T03:10:19;57371.69;;;-144.48;100.00
10688;BME280;5392;42.688;23.298;2023-07-02T03:12:47;57363.31;;;-144.48;100.00
10688;BME280;5392;42.688;23.298;2023-07-02T03:15:14;57344.53;;;-144.48;100.00
10688;BME280;5392;42.688;23.298;2023-07-02T03:17:41;57357.06;;;-144.48;100.00
10688;BME280;5392;42.688;23.298;2023-07-02T03:20:08;57386.28;;;-144.48;100.00
10688;BME280;5392;42.688;23.298;2023-07-02T03:22:35;57386.28;;;-144.48;100.00
10688;BME280;5392;42.688;23.298;2023-07-02T03:25:01;57357.06;;;-144.48;100.00
10688;BME280;5392;42.688;23.298;2023-07-02T03:27:28;57363.31;;;-144.48;100.00
10688;BME280;5392;42.688;23.298;2023-07-02T03:29:55;57400.91;;;-144.48;100.00
10688;BME280;5392;42.688;23.298;2023-07-02T03:32:22;57373.75;;;-144.48;100.00
10688;BME280;5392;42.688;23.298;2023-07-02T03:34:49;57359.16;;;-144.48;100.00
10688;BME280;5392;42.688;23.298;2023-07-02T03:37:15;57417.59;;;-144.48;100.00
10688;BME280;5392;42.688;23.298;2023-07-02T03:39:42;57348.72;;;-144.48;100.00
10688;BME280;5392;42.688;23.298;2023-07-02T03:42:09;57386.28;;;-144.48;100.00
10688;BME280;5392;42.688;23.298;2023-07-02T03:44:35;57348.72;;;-144.48;100.00
10688;BME280;5392;42.688;23.298;2023-07-02T03:47:02;57354.97;;;-144.48;100.00
10688;BME280;5392;42.688;23.298;2023-07-02T03:49:29;57352.91;;;-144.48;100.00
10688;BME280;5392;42.688;23.298;2023-07-02T03:51:56;57361.25;;;-144.48;100.00
10688;BME280;5392;42.688;23.298;2023-07-02T03:54:22;57342.47;;;-144.48;100.00
10688;BME280;5392;42.688;23.298;2023-07-02T03:56:49;57380.03;;;-144.48;100.00
10688;BME280;5392;42.688;23.298;2023-07-02T03:59:16;57338.28;;;-144.48;100.00
10688;BME280;5392;42.688;23.298;2023-07-02T04:01:42;57388.38;;;-144.48;100.00
10688;BME280;5392;42.688;23.298;2023-07-02T04:04:10;57354.97;;;-144.48;100.00
10688;BME280;5392;42.688;23.298;2023-07-02T04:06:38;57363.31;;;-144.48;100.00
10688;BME280;5392;42.688;23.298;2023-07-02T04:09:05;57373.75;;;-144.48;100.00
10688;BME280;5392;42.688;23.298;2023-07-02T04:11:32;57350.81;;;-144.48;100.00
10688;BME280;5392;42.688;23.298;2023-07-02T04:13:58;57371.69;;;-144.48;100.00
10688;BME280;5392;42.688;23.298;2023-07-02T04:16:25;57369.59;;;-144.48;100.00
10688;BME280;5392;42.688;23.298;2023-07-02T04:18:52;57352.91;;;-144.48;100.00
10688;BME280;5392;42.688;23.298;2023-07-02T04:21:19;57384.19;;;-144.48;100.00
10688;BME280;5392;42.688;23.298;2023-07-02T04:23:45;57373.75;;;-144.48;100.00
10688;BME280;5392;42.688;23.298;2023-07-02T04:26:14;57350.81;;;-144.48;100.00
10688;BME280;5392;42.688;23.298;2023-07-02T04:29:01;57371.69;;;-144.48;100.00
10688;BME280;5392;42.688;23.298;2023-07-02T04:31:28;57346.63;;;-144.48;100.00
10688;BME280;5392;42.688;23.298;2023-07-02T04:33:56;57367.50;;;-144.48;100.00
10688;BME280;5392;42.688;23.298;2023-07-02T04:36:23;57336.19;;;-144.48;100.00
10688;BME280;5392;42.688;23.298;2023-07-02T04:38:50;57357.06;;;-144.48;100.00
10688;BME280;5392;42.688;23.298;2023-07-02T04:41:19;57342.47;;;-144.48;100.00
10688;BME280;5392;42.688;23.298;2023-07-02T04:43:46;57319.50;;;-144.48;100.00
10688;BME280;5392;42.688;23.298;2023-07-02T04:46:14;57365.41;;;-144.48;100.00
10688;BME280;5392;42.688;23.298;2023-07-02T04:48:40;57377.94;;;-144.48;100.00
10688;BME280;5392;42.688;23.298;2023-07-02T04:51:07;57357.06;;;-144.48;100.00
10688;BME280;5392;42.688;23.298;2023-07-02T04:53:34;57352.91;;;-144.48;100.00
10688;BME280;5392;42.688;23.298;2023-07-02T04:56:00;57327.84;;;-144.48;100.00
10688;BME280;5392;42.688;23.298;2023-07-02T04:58:27;57386.28;;;-144.48;100.00
10688;BME280;5392;42.688;23.298;2023-07-02T05:00:54;57371.69;;;-144.48;100.00
10688;BME280;5392;42.688;23.298;2023-07-02T05:03:21;57359.16;;;-144.48;100.00
10688;BME280;5392;42.688;23.298;2023-07-02T05:05:48;57394.63;;;-144.48;100.00
10688;BME280;5392;42.688;23.298;2023-07-02T05:08:14;57359.16;;;-144.48;100.00
10688;BME280;5392;42.688;23.298;2023-07-02T05:10:41;57400.91;;;-144.48;100.00
10688;BME280;5392;42.688;23.298;2023-07-02T05:13:08;57350.81;;;-144.48;100.00
10688;BME280;5392;42.688;23.298;2023-07-02T05:15:35;57363.31;;;-144.48;100.00
10688;BME280;5392;42.688;23.298;2023-07-02T05:18:01;57359.16;;;-144.48;100.00
10688;BME280;5392;42.688;23.298;2023-07-02T05:20:28;57329.94;;;-144.48;100.00
10688;BME280;5392;42.688;23.298;2023-07-02T05:22:55;57361.25;;;-144.48;100.00
10688;BME280;5392;42.688;23.298;2023-07-02T05:25:22;57396.72;;;-144.48;100.00
10688;BME280;5392;42.688;23.298;2023-07-02T05:27:48;57386.28;;;-144.48;100.00
10688;BME280;5392;42.688;23.298;2023-07-02T05:30:15;57361.25;;;-144.48;100.00
10688;BME280;5392;42.688;23.298;2023-07-02T05:32:42;57332.03;;;-144.48;100.00
10688;BME280;5392;42.688;23.298;2023-07-02T05:35:09;57338.28;;;-144.48;100.00
10688;BME280;5392;42.688;23.298;2023-07-02T05:37:35;57373.75;;;-144.48;100.00
10688;BME280;5392;42.688;23.298;2023-07-02T05:40:02;57396.72;;;-144.48;100.00
10688;BME280;5392;42.688;23.298;2023-07-02T05:42:29;57350.81;;;-144.48;100.00
10688;BME280;5392;42.688;23.298;2023-07-02T05:44:56;57369.59;;;-144.48;100.00
10688;BME280;5392;42.688;23.298;2023-07-02T05:47:23;57350.81;;;-144.48;100.00
10688;BME280;5392;42.688;23.298;2023-07-02T05:49:50;57329.94;;;-144.48;100.00
10688;BME280;5392;42.688;23.298;2023-07-02T05:52:16;57363.31;;;-144.48;100.00
10688;BME280;5392;42.688;23.298;2023-07-02T05:54:43;57377.94;;;-144.48;100.00
10688;BME280;5392;42.688;23.298;2023-07-02T05:57:10;57382.13;;;-144.48;100.00
10688;BME280;5392;42.688;23.298;2023-07-02T05:59:37;57371.69;;;-144.48;100.00
10688;BME280;5392;42.688;23.298;2023-07-02T06:02:04;57354.97;;;-144.48;100.00
10688;BME280;5392;42.688;23.298;2023-07-02T06:04:31;57332.03;;;-144.48;98.24
10688;BME280;5392;42.688;23.298;2023-07-02T06:06:57;57373.75;;;-144.48;95.27
10688;BME280;5392;42.688;23.298;2023-07-02T06:09:24;57338.28;;;-144.48;92.65
10688;BME280;5392;42.688;23.298;2023-07-02T06:11:51;57344.53;;;-144.48;87.38
10688;BME280;5392;42.688;23.298;2023-07-02T06:14:18;57363.31;;;-144.48;84.48
10688;BME280;5392;42.688;23.298;2023-07-02T06:16:45;57334.09;;;-144.48;84.66
10688;BME280;5392;42.688;23.298;2023-07-02T06:19:12;57300.72;;;-144.48;87.53
10688;BME280;5392;42.688;23.298;2023-07-02T06:21:39;57334.09;;;-144.48;88.17
10688;BME280;5392;42.688;23.298;2023-07-02T06:24:05;57350.81;;;-144.48;89.33
10688;BME280;5392;42.688;23.298;2023-07-02T06:26:32;57350.81;;;-144.48;90.30
10688;BME280;5392;42.688;23.298;2023-07-02T06:28:59;57359.16;;;-144.48;89.56
10688;BME280;5392;42.688;23.298;2023-07-02T06:31:26;57367.50;;;-144.48;90.32
10688;BME280;5392;42.688;23.298;2023-07-02T06:33:52;57361.25;;;-144.48;90.22
10688;BME280;5392;42.688;23.298;2023-07-02T06:36:19;57352.91;;;-144.48;88.25
10688;BME280;5392;42.688;23.298;2023-07-02T06:38:46;57357.06;;;-144.48;87.54
10688;BME280;5392;42.688;23.298;2023-07-02T06:41:13;57329.94;;;-144.48;87.60
10688;BME280;5392;42.688;23.298;2023-07-02T06:43:43;57334.09;;;-144.48;85.00
10688;BME280;5392;42.688;23.298;2023-07-02T06:46:11;57332.03;;;-144.48;86.02
10688;BME280;5392;42.688;23.298;2023-07-02T06:48:38;57377.94;;;-144.48;86.57
10688;BME280;5392;42.688;23.298;2023-07-02T06:51:05;57329.94;;;-144.48;86.27
10688;BME280;5392;42.688;23.298;2023-07-02T06:53:34;57342.47;;;-144.48;83.53
10688;BME280;5392;42.688;23.298;2023-07-02T06:56:01;57357.06;;;-144.48;81.93
10688;BME280;5392;42.688;23.298;2023-07-02T06:58:27;57336.19;;;-144.48;82.38
10688;BME280;5392;42.688;23.298;2023-07-02T07:00:54;57363.31;;;-144.48;80.99
10688;BME280;5392;42.688;23.298;2023-07-02T07:03:21;57367.50;;;-144.48;81.07
10688;BME280;5392;42.688;23.298;2023-07-02T07:05:48;57342.47;;;-144.48;80.29
10688;BME280;5392;42.688;23.298;2023-07-02T07:08:15;57323.66;;;-144.48;79.72
10688;BME280;5392;42.688;23.298;2023-07-02T07:10:42;57348.72;;;-144.48;77.51
10688;BME280;5392;42.688;23.298;2023-07-02T07:13:09;57352.91;;;-144.48;75.68
10688;BME280;5392;42.688;23.298;2023-07-02T07:15:37;57357.06;;;-144.48;67.70
10688;BME280;5392;42.688;23.298;2023-07-02T07:18:04;57340.38;;;-144.48;62.93
10688;BME280;5392;42.688;23.298;2023-07-02T07:20:31;57332.03;;;-144.48;61.11
10688;BME280;5392;42.688;23.298;2023-07-02T07:22:58;57336.19;;;-144.48;62.92
10688;BME280;5392;42.688;23.298;2023-07-02T07:25:25;57340.38;;;-144.48;66.37
10688;BME280;5392;42.688;23.298;2023-07-02T07:27:51;57319.50;;;-144.48;64.54
10688;BME280;5392;42.688;23.298;2023-07-02T07:30:19;57338.28;;;-144.48;60.02
10688;BME280;5392;42.688;23.298;2023-07-02T07:32:52;57317.41;;;-144.48;58.10
10688;BME280;5392;42.688;23.298;2023-07-02T07:35:21;57294.44;;;-144.48;62.12
10688;BME280;5392;42.688;23.298;2023-07-02T07:37:49;57329.94;;;-144.48;61.75
10688;BME280;5392;42.688;23.298;2023-07-02T07:40:16;57361.25;;;-144.48;64.60
10688;BME280;5392;42.688;23.298;2023-07-02T07:42:42;57319.50;;;-144.48;65.14
10688;BME280;5392;42.688;23.298;2023-07-02T07:45:10;57352.91;;;-144.48;60.42
10688;BME280;5392;42.688;23.298;2023-07-02T07:47:38;57286.09;;;-144.48;60.74
10688;BME280;5392;42.688;23.298;2023-07-02T07:50:06;57288.19;;;-144.48;59.87
10688;BME280;5392;42.688;23.298;2023-07-02T07:52:38;57300.72;;;-144.48;58.25
10688;BME280;5392;42.688;23.298;2023-07-02T07:55:06;57311.16;;;-144.48;58.63
10688;BME280;5392;42.688;23.298;2023-07-02T07:57:34;57271.50;;;-144.48;59.67
10688;BME280;5392;42.688;23.298;2023-07-02T08:00:02;57298.63;;;-144.48;59.03
10688;BME280;5392;42.688;23.298;2023-07-02T08:02:31;57306.97;;;-144.48;58.10
10688;BME280;5392;42.688;23.298;2023-07-02T08:04:58;57271.50;;;-144.48;53.90
10688;BME280;5392;42.688;23.298;2023-07-02T08:07:25;57306.97;;;-144.48;54.48
10688;BME280;5392;42.688;23.298;2023-07-02T08:09:51;57284.00;;;-144.48;52.94
10688;BME280;5392;42.688;23.298;2023-07-02T08:12:18;57279.84;;;-144.48;52.32
10688;BME280;5392;42.688;23.298;2023-07-02T08:14:45;57292.38;;;-144.48;51.55
10688;BME280;5392;42.688;23.298;2023-07-02T08:17:11;57256.88;;;-144.48;52.78
10688;BME280;5392;42.688;23.298;2023-07-02T08:19:38;57329.94;;;-144.48;52.14
10688;BME280;5392;42.688;23.298;2023-07-02T08:22:05;57269.41;;;-144.48;52.35
10688;BME280;5392;42.688;23.298;2023-07-02T08:24:31;57269.41;;;-144.48;52.70
10688;BME280;5392;42.688;23.298;2023-07-02T08:26:58;57300.72;;;-144.48;54.87
10688;BME280;5392;42.688;23.298;2023-07-02T08:29:25;57319.50;;;-144.48;60.09
10688;BME280;5392;42.688;23.298;2023-07-02T08:31:52;57311.16;;;-144.48;60.94
10688;BME280;5392;42.688;23.298;2023-07-02T08:34:18;57342.47;;;-144.48;57.61
10688;BME280;5392;42.688;23.298;2023-07-02T08:36:45;57321.59;;;-144.48;56.59
10688;BME280;5392;42.688;23.298;2023-07-02T08:39:12;57306.97;;;-144.48;55.42
10688;BME280;5392;42.688;23.298;2023-07-02T08:41:46;57298.63;;;-144.48;54.13
10688;BME280;5392;42.688;23.298;2023-07-02T08:44:14;57329.94;;;-144.48;56.34
10688;BME280;5392;42.688;23.298;2023-07-02T08:46:42;57342.47;;;-144.48;55.92
10688;BME280;5392;42.688;23.298;2023-07-02T08:49:09;57277.75;;;-144.48;55.29
10688;BME280;5392;42.688;23.298;2023-07-02T08:51:36;57302.81;;;-144.48;55.00
10688;BME280;5392;42.688;23.298;2023-07-02T08:54:03;57286.09;;;-144.48;54.88
10688;BME280;5392;42.688;23.298;2023-07-02T08:56:30;57332.03;;;-144.48;55.01
10688;BME280;5392;42.688;23.298;2023-07-02T08:58:57;57336.19;;;-144.48;57.74
10688;BME280;5392;42.688;23.298;2023-07-02T09:01:24;57275.66;;;-144.48;54.84
10688;BME280;5392;42.688;23.298;2023-07-02T09:03:51;57321.59;;;-144.48;55.99
10688;BME280;5392;42.688;23.298;2023-07-02T09:06:18;57329.94;;;-144.48;56.22
10688;BME280;5392;42.688;23.298;2023-07-02T09:08:45;57332.03;;;-144.48;54.69
10688;BME280;5392;42.688;23.298;2023-07-02T09:11:14;57321.59;;;-144.48;55.03
10688;BME280;5392;42.688;23.298;2023-07-02T09:13:51;57334.09;;;-144.48;53.18
10688;BME280;5392;42.688;23.298;2023-07-02T09:16:33;57292.38;;;-144.48;50.46
10688;BME280;5392;42.688;23.298;2023-07-02T09:19:07;57319.50;;;-144.48;50.08
10688;BME280;5392;42.688;23.298;2023-07-02T09:21:43;57311.16;;;-144.48;50.53
10688;BME280;5392;42.688;23.298;2023-07-02T09:24:16;57340.38;;;-144.48;51.65
10688;BME280;5392;42.688;23.298;2023-07-02T09:26:46;57340.38;;;-144.48;54.99
10688;BME280;5392;42.688;23.298;2023-07-02T09:29:30;57317.41;;;-144.48;56.56
10688;BME280;5392;42.688;23.298;2023-07-02T09:31:59;57363.31;;;-144.48;58.20
10688;BME280;5392;42.688;23.298;2023-07-02T09:34:37;57352.91;;;-144.48;58.94
10688;BME280;5392;42.688;23.298;2023-07-02T09:37:05;57338.28;;;-144.48;60.48
10688;BME280;5392;42.688;23.298;2023-07-02T09:39:33;57375.84;;;-144.48;61.59
10688;BME280;5392;42.688;23.298;2023-07-02T09:42:05;57380.03;;;-144.48;60.16
10688;BME280;5392;42.688;23.298;2023-07-02T09:44:33;57338.28;;;-144.48;60.73
10688;BME280;5392;42.688;23.298;2023-07-02T09:47:08;57367.50;;;-144.48;61.35
10688;BME280;5392;42.688;23.298;2023-07-02T09:52:07;57348.72;;;-144.48;58.22
10688;BME280;5392;42.688;23.298;2023-07-02T09:54:35;57357.06;;;-144.48;56.54
10688;BME280;5392;42.688;23.298;2023-07-02T09:57:02;57354.97;;;-144.48;54.96
10688;BME280;5392;42.688;23.298;2023-07-02T09:59:29;57315.31;;;-144.48;53.86
10688;BME280;5392;42.688;23.298;2023-07-02T10:01:56;57344.53;;;-144.48;55.85
10688;BME280;5392;42.688;23.298;2023-07-02T10:04:24;57334.09;;;-144.48;55.36
10688;BME280;5392;42.688;23.298;2023-07-02T10:09:20;57342.47;;;-144.48;55.53
10688;BME280;5392;42.688;23.298;2023-07-02T10:11:47;57292.38;;;-144.48;55.06
10688;BME280;5392;42.688;23.298;2023-07-02T10:14:14;57346.63;;;-144.48;54.46
10688;BME280;5392;42.688;23.298;2023-07-02T10:16:55;57346.63;;;-144.48;54.15
10688;BME280;5392;42.688;23.298;2023-07-02T10:19:22;57329.94;;;-144.48;54.09
10688;BME280;5392;42.688;23.298;2023-07-02T10:22:07;57313.22;;;-144.48;54.71
10688;BME280;5392;42.688;23.298;2023-07-02T10:24:35;57334.09;;;-144.48;54.46
10688;BME280;5392;42.688;23.298;2023-07-02T10:27:02;57332.03;;;-144.48;54.29
10688;BME280;5392;42.688;23.298;2023-07-02T10:29:29;57313.22;;;-144.48;54.88
10688;BME280;5392;42.688;23.298;2023-07-02T10:31:57;57321.59;;;-144.48;55.80
10688;BME280;5392;42.688;23.298;2023-07-02T10:34:35;57315.31;;;-144.48;54.90
10688;BME280;5392;42.688;23.298;2023-07-02T10:37:03;57334.09;;;-144.48;56.71
10688;BME280;5392;42.688;23.298;2023-07-02T10:39:31;57363.31;;;-144.48;56.56
10688;BME280;5392;42.688;23.298;2023-07-02T10:42:08;57325.75;;;-144.48;57.13
10688;BME280;5392;42.688;23.298;2023-07-02T10:44:52;57352.91;;;-144.48;56.17
10688;BME280;5392;42.688;23.298;2023-07-02T10:47:19;57346.63;;;-144.48;54.78
10688;BME280;5392;42.688;23.298;2023-07-02T10:49:46;57373.75;;;-144.48;53.73
10688;BME280;5392;42.688;23.298;2023-07-02T10:52:13;57334.09;;;-144.48;53.24
10688;BME280;5392;42.688;23.298;2023-07-02T10:54:44;57321.59;;;-144.48;52.19
10688;BME280;5392;42.688;23.298;2023-07-02T10:57:14;57342.47;;;-144.48;54.06
10688;BME280;5392;42.688;23.298;2023-07-02T10:59:42;57348.72;;;-144.48;53.70
10688;BME280;5392;42.688;23.298;2023-07-02T11:02:09;57325.75;;;-144.48;52.94
10688;BME280;5392;42.688;23.298;2023-07-02T11:04:36;57288.19;;;-144.48;52.24
10688;BME280;5392;42.688;23.298;2023-07-02T11:07:04;57321.59;;;-144.48;52.19
10688;BME280;5392;42.688;23.298;2023-07-02T11:09:32;57292.38;;;-144.48;51.67
10688;BME280;5392;42.688;23.298;2023-07-02T11:12:00;57313.22;;;-144.48;51.86
10688;BME280;5392;42.688;23.298;2023-07-02T11:14:33;57309.06;;;-144.48;50.85
10688;BME280;5392;42.688;23.298;2023-07-02T11:17:05;57281.94;;;-144.48;49.76
10688;BME280;5392;42.688;23.298;2023-07-02T11:19:33;57296.53;;;-144.48;48.77
10688;BME280;5392;42.688;23.298;2023-07-02T11:22:01;57284.00;;;-144.48;49.61
10688;BME280;5392;42.688;23.298;2023-07-02T11:24:34;57240.19;;;-144.48;51.06
10688;BME280;5392;42.688;23.298;2023-07-02T11:27:02;57338.28;;;-144.48;51.25
10688;BME280;5392;42.688;23.298;2023-07-02T11:29:29;57332.03;;;-144.48;54.43
10688;BME280;5392;42.688;23.298;2023-07-02T11:32:11;57350.81;;;-144.48;58.04
10688;BME280;5392;42.688;23.298;2023-07-02T11:34:38;57371.69;;;-144.48;59.87
10688;BME280;5392;42.688;23.298;2023-07-02T11:37:05;57369.59;;;-144.48;60.43
10688;BME280;5392;42.688;23.298;2023-07-02T11:39:32;57346.63;;;-144.48;61.01
10688;BME280;5392;42.688;23.298;2023-07-02T11:41:59;57354.97;;;-144.48;60.27
10688;BME280;5392;42.688;23.298;2023-07-02T11:44:26;57329.94;;;-144.48;60.30
10688;BME280;5392;42.688;23.298;2023-07-02T11:46:52;57344.53;;;-144.48;59.52
10688;BME280;5392;42.688;23.298;2023-07-02T11:49:19;57352.91;;;-144.48;58.51
10688;BME280;5392;42.688;23.298;2023-07-02T11:51:46;57373.75;;;-144.48;57.24
10688;BME280;5392;42.688;23.298;2023-07-02T11:54:15;57354.97;;;-144.48;54.83
10688;BME280;5392;42.688;23.298;2023-07-02T11:56:43;57332.03;;;-144.48;54.61
10688;BME280;5392;42.688;23.298;2023-07-02T11:59:10;57334.09;;;-144.48;53.74
10688;BME280;5392;42.688;23.298;2023-07-02T12:01:37;57367.50;;;-144.48;55.30
10688;BME280;5392;42.688;23.298;2023-07-02T12:04:04;57321.59;;;-144.48;55.58
10688;BME280;5392;42.688;23.298;2023-07-02T12:06:31;57340.38;;;-144.48;55.75
10688;BME280;5392;42.688;23.298;2023-07-02T12:08:58;57329.94;;;-144.48;56.53
10688;BME280;5392;42.688;23.298;2023-07-02T12:11:25;57361.25;;;-144.48;58.73
10688;BME280;5392;42.688;23.298;2023-07-02T12:13:52;57329.94;;;-144.48;59.81
10688;BME280;5392;42.688;23.298;2023-07-02T12:16:18;57348.72;;;-144.48;59.36
10688;BME280;5392;42.688;23.298;2023-07-02T12:18:45;57325.75;;;-144.48;60.26
10688;BME280;5392;42.688;23.298;2023-07-02T12:21:12;57373.75;;;-144.48;63.07
10688;BME280;5392;42.688;23.298;2023-07-02T12:23:38;57348.72;;;-144.48;62.77
10688;BME280;5392;42.688;23.298;2023-07-02T12:26:05;57380.03;;;-144.48;65.93
10688;BME280;5392;42.688;23.298;2023-07-02T12:28:32;57380.03;;;-144.48;67.76
10688;BME280;5392;42.688;23.298;2023-07-02T12:30:59;57336.19;;;-144.48;69.75
10688;BME280;5392;42.688;23.298;2023-07-02T12:33:25;57323.66;;;-144.48;77.65
10688;BME280;5392;42.688;23.298;2023-07-02T12:35:52;57336.19;;;-144.48;73.09
10688;BME280;5392;42.688;23.298;2023-07-02T12:38:19;57294.44;;;-144.48;69.69
10688;BME280;5392;42.688;23.298;2023-07-02T12:40:45;57365.41;;;-144.48;65.50
10688;BME280;5392;42.688;23.298;2023-07-02T12:43:12;57342.47;;;-144.48;63.27